Time;durP1;ratioP1;P1;durP2;ratioP2;P2;SDS_P1;SDS_P2;PMS_P1;PMS_P2;Temp;Humidity;BMP_temperature;BMP_pressure;BME280_temperature;BME280_humidity;BME280_pressure;Samples;Min_cycle;Max_cycle;Signal;HPM_P1;HPM_P2
2021/12/02 00:02:22;;;;;;;51.75;33.08;;;;;;;0.06;100.00;94767.78;6206301;23;20019;-67
2021/12/02 00:04:48;;;;;;;53.33;35.17;;;;;;;0.05;100.00;94766.13;6205684;23;20452;-67
2021/12/02 00:07:13;;;;;;;51.88;33.35;;;;;;;0.00;100.00;94756.09;6206055;23;20079;-66
2021/12/02 00:09:40;;;;;;;52.20;31.50;;;;;;;-0.01;100.00;94750.09;6206980;23;20504;-68
2021/12/02 00:12:07;;;;;;;51.63;33.28;;;;;;;0.01;100.00;94755.19;6205713;23;20386;-66
2021/12/02 00:14:41;;;;;;;81.88;44.28;;;;;;;-0.01;100.00;94755.25;6206951;23;20016;-66
2021/12/02 00:17:15;;;;;;;89.53;46.90;;;;;;;-0.01;100.00;94747.50;6178545;23;20013;-66
2021/12/02 00:22:28;;;;;;;112.43;57.15;;;;;;;0.05;100.00;94759.22;6206061;23;20020;-67
2021/12/02 00:24:58;;;;;;;91.00;51.90;;;;;;;0.11;100.00;94755.38;6204260;23;20016;-65
2021/12/02 00:27:26;;;;;;;106.53;48.30;;;;;;;0.08;100.00;94747.81;6202893;23;20008;-65
2021/12/02 00:29:55;;;;;;;96.40;47.00;;;;;;;0.04;100.00;94738.59;6205675;23;20005;-66
2021/12/02 00:32:24;;;;;;;58.10;33.50;;;;;;;0.08;100.00;94737.47;6205023;23;20004;-66
2021/12/02 00:34:50;;;;;;;53.35;32.42;;;;;;;0.07;100.00;94728.03;6205969;23;20017;-66
2021/12/02 00:37:16;;;;;;;62.75;32.55;;;;;;;0.07;100.00;94725.44;6205888;23;20011;-66
2021/12/02 00:39:41;;;;;;;52.60;31.58;;;;;;;0.07;100.00;94718.53;6206788;23;20435;-66
2021/12/02 00:42:10;;;;;;;51.45;31.00;;;;;;;0.06;100.00;94709.09;6206131;23;20001;-66
2021/12/02 00:44:37;;;;;;;52.45;31.55;;;;;;;0.05;100.00;94699.69;6205897;23;20005;-66
2021/12/02 00:47:04;;;;;;;49.08;30.10;;;;;;;0.05;100.00;94701.44;6206337;23;20074;-66
2021/12/02 00:49:30;;;;;;;54.88;28.60;;;;;;;0.05;100.00;94696.25;6206078;23;20070;-66
2021/12/02 00:51:58;;;;;;;53.90;33.35;;;;;;;0.11;100.00;94707.03;6205957;23;20031;-66
2021/12/02 00:54:26;;;;;;;50.03;29.55;;;;;;;0.05;100.00;94691.91;6205743;23;20004;-66
2021/12/02 00:56:52;;;;;;;51.38;30.50;;;;;;;0.05;100.00;94694.50;6206036;23;20435;-66
2021/12/02 00:59:19;;;;;;;57.70;32.20;;;;;;;0.04;100.00;94684.25;6205987;23;20092;-66
2021/12/02 01:01:48;;;;;;;62.35;35.60;;;;;;;0.01;100.00;94684.44;6205045;23;20001;-66
2021/12/02 01:04:19;;;;;;;54.28;30.85;;;;;;;-0.01;100.00;94690.56;6205514;23;20015;-66
2021/12/02 01:06:44;;;;;;;50.28;31.90;;;;;;;-0.01;100.00;94684.53;6205934;23;20008;-66
2021/12/02 01:09:11;;;;;;;78.57;34.95;;;;;;;-0.04;100.00;94685.59;6205946;23;20428;-66
2021/12/02 01:11:38;;;;;;;61.38;30.77;;;;;;;-0.02;100.00;94691.50;6205561;23;20462;-67
2021/12/02 01:14:04;;;;;;;81.05;32.70;;;;;;;-0.03;100.00;94681.22;6205972;23;20444;-66
2021/12/02 01:16:30;;;;;;;53.63;31.50;;;;;;;-0.07;100.00;94679.78;6206140;23;20004;-67
2021/12/02 01:18:55;;;;;;;46.75;30.20;;;;;;;-0.09;100.00;94685.06;6204657;23;20064;-66
2021/12/02 01:21:23;;;;;;;51.53;30.95;;;;;;;-0.13;100.00;94686.19;6206352;23;20039;-66
2021/12/02 01:23:51;;;;;;;36.72;24.77;;;;;;;0.05;100.00;94683.31;6205191;23;20050;-66
2021/12/02 01:26:18;;;;;;;47.80;28.08;;;;;;;-0.02;100.00;94683.72;6205362;23;20107;-67
2021/12/02 01:28:44;;;;;;;55.05;29.30;;;;;;;-0.06;100.00;94681.44;6205889;23;20016;-67
2021/12/02 01:31:11;;;;;;;46.40;27.17;;;;;;;-0.10;100.00;94686.00;6205646;23;20001;-66
2021/12/02 01:33:38;;;;;;;46.95;27.67;;;;;;;-0.12;100.00;94677.50;6205474;23;20000;-66
2021/12/02 01:36:05;;;;;;;44.63;28.50;;;;;;;-0.12;100.00;94677.50;6205722;23;20520;-66
2021/12/02 01:38:32;;;;;;;39.72;24.27;;;;;;;-0.10;100.00;94674.81;6206104;23;20130;-66
2021/12/02 01:40:59;;;;;;;33.20;24.30;;;;;;;-0.10;100.00;94677.41;6204900;23;19996;-66
2021/12/02 01:43:50;;;;;;;46.78;28.88;;;;;;;-0.14;100.00;94674.19;6206405;23;20348;-66
2021/12/02 01:46:25;;;;;;;51.50;33.00;;;;;;;-0.10;100.00;94669.63;6205101;23;20054;-66
2021/12/02 01:49:05;;;;;;;49.60;31.30;;;;;;;-0.07;100.00;94672.03;6206194;23;20001;-66
2021/12/02 01:51:37;;;;;;;49.33;31.17;;;;;;;-0.10;100.00;94661.88;6204640;23;20005;-66
2021/12/02 01:54:09;;;;;;;41.58;24.15;;;;;;;-0.09;100.00;94666.97;6179199;23;20083;-66
2021/12/02 01:56:42;;;;;;;20.08;15.20;;;;;;;-0.05;100.00;94662.41;6204502;23;20004;-66
2021/12/02 01:59:14;;;;;;;22.20;16.13;;;;;;;-0.09;100.00;94661.78;6205860;23;20031;-66
2021/12/02 02:01:42;;;;;;;28.33;18.35;;;;;;;-0.09;100.00;94648.84;6203582;23;20390;-66
2021/12/02 02:04:08;;;;;;;28.15;20.98;;;;;;;-0.08;100.00;94655.69;6205268;23;20015;-66
2021/12/02 02:06:38;;;;;;;28.90;20.33;;;;;;;-0.08;100.00;94653.09;6204765;22;20038;-66
2021/12/02 02:09:06;;;;;;;23.67;18.52;;;;;;;-0.11;100.00;94645.53;6206072;23;20000;-66
2021/12/02 02:11:32;;;;;;;28.75;19.65;;;;;;;-0.13;100.00;94639.63;6206720;23;20111;-66
2021/12/02 02:13:59;;;;;;;27.52;20.80;;;;;;;-0.15;100.00;94639.72;6207536;23;19996;-66
2021/12/02 02:16:25;;;;;;;29.75;20.80;;;;;;;-0.15;100.00;94641.47;6207091;23;20343;-66
2021/12/02 02:18:51;;;;;;;25.88;20.00;;;;;;;-0.18;100.00;94631.34;6205857;23;20325;-66
2021/12/02 02:21:18;;;;;;;29.83;21.23;;;;;;;-0.22;100.00;94629.88;6206888;23;20004;-66
2021/12/02 02:23:59;;;;;;;29.58;20.55;;;;;;;-0.27;100.00;94626.78;6206269;23;20012;-67
2021/12/02 02:26:28;;;;;;;28.98;21.48;;;;;;;-0.31;100.00;94628.75;6206649;23;20024;-66
2021/12/02 02:28:55;;;;;;;31.23;18.27;;;;;;;-0.32;100.00;94620.16;6205663;23;20428;-66
2021/12/02 02:31:21;;;;;;;24.25;18.75;;;;;;;-0.35;100.00;94625.53;6207174;23;20024;-66
2021/12/02 02:33:51;;;;;;;27.83;17.83;;;;;;;-0.36;100.00;94620.47;6206623;23;20001;-66
2021/12/02 02:36:22;;;;;;;27.30;18.25;;;;;;;-0.34;100.00;94611.66;6206874;23;20439;-66
2021/12/02 02:39:02;;;;;;;32.22;20.17;;;;;;;-0.32;100.00;94614.16;6206370;23;20443;-66
2021/12/02 02:41:34;;;;;;;24.20;17.33;;;;;;;-0.40;100.00;94612.06;6207519;23;20128;-66
2021/12/02 02:44:00;;;;;;;22.45;17.65;;;;;;;-0.46;100.00;94615.06;6205553;23;20015;-66
2021/12/02 02:46:30;;;;;;;24.95;15.48;;;;;;;-0.49;100.00;94613.50;6205776;23;20007;-66
2021/12/02 02:48:57;;;;;;;24.65;16.05;;;;;;;-0.34;100.00;94610.84;6206936;23;20004;-66
2021/12/02 02:51:23;;;;;;;26.75;18.10;;;;;;;-0.22;100.00;94611.78;6206311;23;20005;-66
2021/12/02 02:53:51;;;;;;;21.55;16.90;;;;;;;-0.21;100.00;94611.69;6207056;23;20005;-66
2021/12/02 02:56:18;;;;;;;28.63;19.90;;;;;;;-0.31;100.00;94613.22;6206406;23;20062;-66
2021/12/02 03:03:59;;;;;;;26.77;18.58;;;;;;;-0.39;100.00;94610.31;6206850;23;20356;-66
2021/12/02 03:09:05;;;;;;;137.23;17.60;;;;;;;-0.26;100.00;94608.56;6206698;23;20087;-66
2021/12/02 03:11:40;;;;;;;90.82;16.50;;;;;;;-0.33;100.00;94612.50;6206318;23;20399;-66
2021/12/02 03:14:11;;;;;;;173.15;19.38;;;;;;;-0.31;100.00;94600.28;6206303;23;20012;-66
2021/12/02 03:16:44;;;;;;;111.53;16.55;;;;;;;-0.30;100.00;94605.38;6205974;23;20428;-66
2021/12/02 03:19:26;;;;;;;33.88;15.77;;;;;;;-0.30;100.00;94601.94;6206255;23;20027;-66
2021/12/02 03:21:52;;;;;;;89.93;18.00;;;;;;;-0.21;100.00;94605.69;6205784;23;20008;-66
2021/12/02 03:24:18;;;;;;;73.68;17.85;;;;;;;-0.22;100.00;94589.34;6205548;23;20005;-66
2021/12/02 03:26:43;;;;;;;45.15;17.50;;;;;;;-0.17;100.00;94595.03;6206282;23;20064;-66
2021/12/02 03:29:09;;;;;;;42.53;16.83;;;;;;;-0.18;100.00;94589.94;6205578;23;20012;-66
2021/12/02 03:31:34;;;;;;;81.25;19.00;;;;;;;-0.24;100.00;94590.38;6206372;23;20455;-66
2021/12/02 03:34:01;;;;;;;34.45;17.73;;;;;;;-0.27;100.00;94595.75;6206645;23;20394;-66
2021/12/02 03:36:28;;;;;;;26.83;17.38;;;;;;;-0.27;100.00;94593.16;6204962;23;20005;-66
2021/12/02 03:38:53;;;;;;;58.13;18.20;;;;;;;-0.29;100.00;94595.84;6206382;23;20071;-65
2021/12/02 03:41:19;;;;;;;32.78;16.98;;;;;;;-0.26;100.00;94600.00;6205330;23;20161;-66
2021/12/02 03:43:46;;;;;;;36.85;16.88;;;;;;;-0.22;100.00;94593.66;6206449;23;20012;-66
2021/12/02 03:46:14;;;;;;;64.85;17.50;;;;;;;-0.23;100.00;94597.19;6205186;23;20008;-66
2021/12/02 03:48:41;;;;;;;32.97;17.67;;;;;;;-0.24;100.00;94600.72;6206716;23;20678;-66
2021/12/02 03:51:08;;;;;;;73.45;22.15;;;;;;;-0.24;100.00;94590.38;6205555;23;20007;-65
2021/12/02 03:53:34;;;;;;;41.67;20.08;;;;;;;-0.23;100.00;94600.59;6206468;23;20009;-66
2021/12/02 03:56:01;;;;;;;54.78;21.40;;;;;;;-0.24;100.00;94604.09;6204975;23;20096;-66
2021/12/02 03:58:29;;;;;;;38.30;18.92;;;;;;;-0.23;100.00;94602.38;6205310;23;20062;-66
2021/12/02 04:00:55;;;;;;;56.13;20.92;;;;;;;-0.23;100.00;94607.53;6206450;23;20004;-66
2021/12/02 04:03:20;;;;;;;62.38;19.65;;;;;;;-0.19;100.00;94601.22;6205147;23;20073;-66
2021/12/02 04:05:46;;;;;;;32.35;20.08;;;;;;;-0.21;100.00;94600.50;6206104;23;20008;-66
2021/12/02 04:08:11;;;;;;;97.15;21.70;;;;;;;-0.22;100.00;94601.44;6205451;23;20000;-66
2021/12/02 04:10:41;;;;;;;46.90;18.20;;;;;;;-0.23;100.00;94598.00;6206764;23;20011;-65
2021/12/02 04:13:25;;;;;;;45.38;21.67;;;;;;;-0.23;100.00;94589.44;6206743;23;20015;-65
2021/12/02 04:15:55;;;;;;;33.58;19.35;;;;;;;-0.23;100.00;94602.38;6206422;23;20013;-66
2021/12/02 04:18:21;;;;;;;33.33;20.30;;;;;;;-0.23;100.00;94597.19;6206067;23;20435;-65
2021/12/02 04:20:46;;;;;;;45.05;23.92;;;;;;;-0.24;100.00;94596.34;6206046;23;20595;-65
2021/12/02 04:23:12;;;;;;;46.50;24.98;;;;;;;-0.22;100.00;94604.03;6205902;23;20098;-66
2021/12/02 04:25:37;;;;;;;41.15;24.63;;;;;;;-0.22;100.00;94596.25;6206196;23;20503;-66
2021/12/02 04:28:03;;;;;;;37.88;22.45;;;;;;;-0.21;100.00;94595.31;6206121;23;20053;-66
2021/12/02 04:30:28;;;;;;;35.50;22.15;;;;;;;-0.21;100.00;94592.75;6206092;23;20474;-66
2021/12/02 04:32:54;;;;;;;47.17;22.92;;;;;;;-0.22;100.00;94589.34;6205284;23;20004;-67
2021/12/02 04:35:21;;;;;;;35.70;22.77;;;;;;;-0.25;100.00;94594.69;6204761;23;20009;-67
2021/12/02 04:37:51;;;;;;;38.47;23.00;;;;;;;-0.30;100.00;94582.09;6206009;23;20004;-66
2021/12/02 04:40:18;;;;;;;45.03;25.48;;;;;;;-0.26;100.00;94582.69;6205959;23;20004;-66
2021/12/02 04:42:43;;;;;;;44.90;25.60;;;;;;;-0.26;100.00;94576.72;6178127;23;20457;-66
2021/12/02 04:45:10;;;;;;;40.22;21.95;;;;;;;-0.24;100.00;94574.84;6206075;23;20005;-67
2021/12/02 04:47:35;;;;;;;94.13;28.25;;;;;;;-0.22;100.00;94578.16;6205470;23;20009;-66
2021/12/02 04:50:01;;;;;;;82.30;31.48;;;;;;;-0.22;100.00;94575.56;6206018;23;20116;-66
2021/12/02 04:52:26;;;;;;;61.28;24.88;;;;;;;-0.25;100.00;94568.00;6205201;23;20347;-66
2021/12/02 04:54:51;;;;;;;56.05;24.95;;;;;;;-0.22;100.00;94573.81;6206037;23;20008;-67
2021/12/02 04:57:17;;;;;;;56.13;26.77;;;;;;;-0.21;100.00;94574.63;6205521;23;20076;-66
2021/12/02 04:59:43;;;;;;;55.92;25.85;;;;;;;-0.26;100.00;94569.75;6205096;23;20027;-66
2021/12/02 05:02:08;;;;;;;52.88;25.15;;;;;;;-0.27;100.00;94572.47;6205542;23;20407;-66
2021/12/02 05:04:33;;;;;;;46.38;23.25;;;;;;;-0.28;100.00;94563.06;6205693;23;20023;-66
2021/12/02 05:06:59;;;;;;;42.03;21.42;;;;;;;-0.28;100.00;94560.47;6205274;23;20009;-67
2021/12/02 05:09:24;;;;;;;39.60;23.15;;;;;;;-0.30;100.00;94558.81;6204613;23;20005;-66
2021/12/02 05:11:50;;;;;;;36.38;19.42;;;;;;;-0.27;100.00;94560.34;6205508;23;20548;-66
2021/12/02 05:14:15;;;;;;;38.25;22.30;;;;;;;-0.26;100.00;94554.25;6205110;23;20074;-67
2021/12/02 05:16:41;;;;;;;39.15;21.50;;;;;;;-0.22;100.00;94550.53;6206242;23;20077;-66
2021/12/02 05:19:06;;;;;;;33.53;20.30;;;;;;;-0.21;100.00;94559.94;6178456;23;20411;-67
2021/12/02 05:21:32;;;;;;;59.22;28.25;;;;;;;-0.26;100.00;94567.16;6205912;23;20042;-69
2021/12/02 05:23:57;;;;;;;49.65;28.13;;;;;;;-0.29;100.00;94572.56;6204600;23;20012;-66
2021/12/02 05:26:24;;;;;;;41.72;26.83;;;;;;;-0.25;100.00;94573.19;6205177;23;20009;-67
2021/12/02 05:28:51;;;;;;;41.28;26.48;;;;;;;-0.17;100.00;94586.41;6205084;23;20020;-66
2021/12/02 05:31:16;;;;;;;41.78;27.73;;;;;;;-0.15;100.00;94580.22;6205528;23;20436;-66
2021/12/02 05:33:42;;;;;;;26.45;21.45;;;;;;;-0.22;100.00;94579.00;6205096;23;20007;-67
2021/12/02 05:36:08;;;;;;;31.75;21.83;;;;;;;-0.27;100.00;94581.03;6205668;23;20336;-67
2021/12/02 05:38:34;;;;;;;42.35;30.42;;;;;;;-0.33;100.00;94577.13;6204915;23;20015;-66
2021/12/02 05:41:00;;;;;;;39.90;29.20;;;;;;;-0.31;100.00;94580.44;6205187;23;20036;-66
2021/12/02 05:43:25;;;;;;;36.92;25.95;;;;;;;-0.31;100.00;94574.41;6205219;23;20007;-67
2021/12/02 05:45:50;;;;;;;35.90;25.67;;;;;;;-0.30;100.00;94587.25;6205581;23;20109;-67
2021/12/02 05:48:16;;;;;;;40.03;26.05;;;;;;;-0.30;100.00;94591.59;6206931;23;20008;-67
2021/12/02 05:50:41;;;;;;;37.10;24.88;;;;;;;-0.31;100.00;94588.19;6206779;23;20405;-66
2021/12/02 05:53:07;;;;;;;35.05;23.08;;;;;;;-0.30;100.00;94595.03;6206588;23;20093;-67
2021/12/02 05:55:33;;;;;;;31.88;22.48;;;;;;;-0.28;100.00;94594.09;6206497;23;20075;-67
2021/12/02 05:57:58;;;;;;;38.80;23.50;;;;;;;-0.27;100.00;94590.56;6205423;23;20516;-66
2021/12/02 06:00:23;;;;;;;47.33;22.35;;;;;;;-0.27;100.00;94585.41;6205074;23;20001;-67
2021/12/02 06:02:49;;;;;;;124.93;19.35;;;;;;;-0.30;100.00;94578.66;6206082;23;20457;-67
2021/12/02 06:05:19;;;;;;;88.38;19.52;;;;;;;-0.35;100.00;94576.38;6206647;23;20015;-67
2021/12/02 06:07:45;;;;;;;34.28;17.52;;;;;;;-0.35;100.00;94573.78;6205736;23;20012;-67
2021/12/02 06:10:11;;;;;;;138.02;16.27;;;;;;;-0.35;100.00;94585.91;6206153;23;20039;-67
2021/12/02 06:12:36;;;;;;;133.35;13.75;;;;;;;-0.37;100.00;94574.84;6205648;23;20008;-67
2021/12/02 06:15:02;;;;;;;32.75;14.15;;;;;;;-0.36;100.00;94582.47;6206234;23;20397;-67
2021/12/02 06:17:27;;;;;;;37.88;15.40;;;;;;;-0.31;100.00;94584.75;6206036;23;20032;-67
2021/12/02 06:19:53;;;;;;;66.07;18.80;;;;;;;-0.20;100.00;94582.31;6205752;23;20005;-67
2021/12/02 06:22:18;;;;;;;144.85;27.98;;;;;;;-0.13;100.00;94577.50;6206624;23;20098;-66
2021/12/02 06:24:47;;;;;;;165.50;24.20;;;;;;;-0.24;100.00;94585.19;6206219;23;20023;-67
2021/12/02 06:27:13;;;;;;;111.78;24.10;;;;;;;-0.24;100.00;94587.78;6204706;23;20382;-67
2021/12/02 06:29:39;;;;;;;113.60;25.90;;;;;;;-0.33;100.00;94596.97;6205922;23;20419;-67
2021/12/02 06:32:07;;;;;;;95.38;25.23;;;;;;;-0.33;100.00;94592.66;6205390;23;20420;-67
2021/12/02 06:34:32;;;;;;;77.70;25.50;;;;;;;-0.32;100.00;94593.47;6206248;23;20050;-67
2021/12/02 06:36:58;;;;;;;52.20;23.10;;;;;;;-0.27;100.00;94600.91;6203061;23;20005;-67
2021/12/02 06:39:23;;;;;;;66.30;24.45;;;;;;;-0.27;100.00;94595.75;6205507;23;20407;-67
2021/12/02 06:41:49;;;;;;;73.38;28.58;;;;;;;-0.30;100.00;94594.19;6206351;23;20012;-68
2021/12/02 06:44:14;;;;;;;174.82;25.83;;;;;;;-0.34;100.00;94595.31;6205385;23;20417;-66
2021/12/02 06:46:39;;;;;;;94.28;19.90;;;;;;;-0.36;100.00;94599.78;6205625;23;20008;-69
2021/12/02 06:49:05;;;;;;;56.42;18.90;;;;;;;-0.36;100.00;94595.41;6205888;23;20375;-66
2021/12/02 06:51:30;;;;;;;41.22;17.13;;;;;;;-0.35;100.00;94597.06;6178507;23;20402;-67
2021/12/02 06:53:56;;;;;;;61.05;17.50;;;;;;;-0.32;100.00;94601.22;6205692;23;20057;-65
2021/12/02 06:56:22;;;;;;;53.33;16.83;;;;;;;-0.31;100.00;94606.31;6205388;23;20049;-65
2021/12/02 06:58:47;;;;;;;75.70;24.83;;;;;;;-0.32;100.00;94598.63;6205459;23;20005;-63
2021/12/02 07:01:13;;;;;;;58.08;17.90;;;;;;;-0.30;100.00;94602.78;6205472;23;20001;-65
2021/12/02 07:03:38;;;;;;;53.83;19.33;;;;;;;-0.27;100.00;94601.72;6205147;23;20012;-66
2021/12/02 07:06:04;;;;;;;73.80;20.17;;;;;;;-0.23;100.00;94608.34;6205405;23;20005;-66
2021/12/02 07:08:31;;;;;;;43.30;18.95;;;;;;;-0.21;100.00;94603.09;6205069;23;20008;-65
2021/12/02 07:10:58;;;;;;;43.38;20.13;;;;;;;-0.19;100.00;94602.06;6205529;23;20009;-66
2021/12/02 07:13:23;;;;;;;44.70;19.50;;;;;;;-0.18;100.00;94603.72;6205423;23;20005;-66
2021/12/02 07:15:52;;;;;;;69.50;20.00;;;;;;;-0.18;100.00;94610.63;6206168;23;20008;-66
2021/12/02 07:18:18;;;;;;;49.28;21.88;;;;;;;-0.18;100.00;94606.31;6179486;23;20394;-66
2021/12/02 07:20:49;;;;;;;94.45;20.33;;;;;;;-0.19;100.00;94617.59;6205225;23;20001;-66
2021/12/02 07:23:16;;;;;;;64.25;20.20;;;;;;;-0.17;100.00;94614.88;6205203;23;20005;-66
2021/12/02 07:25:42;;;;;;;83.32;19.83;;;;;;;-0.15;100.00;94631.13;6205502;23;20016;-65
2021/12/02 07:28:12;;;;;;;55.20;19.95;;;;;;;-0.14;100.00;94627.59;6205821;23;20016;-65
2021/12/02 07:30:38;;;;;;;84.88;27.27;;;;;;;-0.14;100.00;94635.38;6205683;23;20286;-65
2021/12/02 07:33:05;;;;;;;61.03;24.65;;;;;;;-0.15;100.00;94636.31;6206368;23;20440;-67
2021/12/02 07:35:30;;;;;;;53.42;23.95;;;;;;;-0.11;100.00;94629.19;6205493;23;20008;-66
2021/12/02 07:37:58;;;;;;;73.70;26.20;;;;;;;-0.07;100.00;94639.22;6206052;23;20076;-67
2021/12/02 07:40:26;;;;;;;63.70;24.85;;;;;;;-0.06;100.00;94640.03;6205269;23;20004;-65
2021/12/02 07:42:52;;;;;;;55.33;24.63;;;;;;;-0.05;100.00;94639.09;6205395;23;20007;-67
2021/12/02 07:45:21;;;;;;;52.53;24.77;;;;;;;-0.04;100.00;94643.34;6204511;23;20466;-67
2021/12/02 07:47:46;;;;;;;54.05;25.17;;;;;;;-0.05;100.00;94637.34;6205051;23;20353;-67
2021/12/02 07:50:15;;;;;;;52.53;23.13;;;;;;;-0.06;100.00;94646.06;6205574;23;20008;-67
2021/12/02 07:52:45;;;;;;;90.68;21.00;;;;;;;-0.10;100.00;94649.78;6205737;23;20012;-67
2021/12/02 07:55:13;;;;;;;65.18;22.05;;;;;;;-0.08;100.00;94653.09;6205317;23;20009;-68
2021/12/02 07:57:40;;;;;;;54.20;23.50;;;;;;;-0.07;100.00;94654.75;6206089;23;20004;-66
2021/12/02 08:00:07;;;;;;;71.82;23.85;;;;;;;-0.05;100.00;94646.88;6206550;23;20066;-65
2021/12/02 08:02:34;;;;;;;65.05;25.15;;;;;;;-0.01;100.00;94653.50;6178626;23;20016;-65
2021/12/02 08:05:00;;;;;;;76.22;24.63;;;;;;;-0.03;100.00;94652.75;6179466;23;20393;-65
2021/12/02 08:07:25;;;;;;;92.82;27.73;;;;;;;-0.04;100.00;94654.53;6205082;23;20716;-66
2021/12/02 08:09:51;;;;;;;116.78;34.30;;;;;;;-0.04;100.00;94654.53;6206401;23;20004;-65
2021/12/02 08:12:16;;;;;;;82.35;31.48;;;;;;;-0.03;100.00;94656.19;6206140;23;20009;-65
2021/12/02 08:14:42;;;;;;;65.53;31.23;;;;;;;-0.01;100.00;94661.25;6205772;23;20011;-65
2021/12/02 08:17:07;;;;;;;62.95;32.08;;;;;;;0.00;100.00;94660.34;6206264;23;20000;-65
2021/12/02 08:19:32;;;;;;;51.25;28.25;;;;;;;0.01;100.00;94666.34;6206124;23;20369;-66
2021/12/02 08:21:58;;;;;;;69.07;31.65;;;;;;;0.01;100.00;94659.41;6205118;23;20001;-70
2021/12/02 08:24:25;;;;;;;59.13;29.25;;;;;;;0.09;100.00;94658.88;6205837;23;20009;-68
2021/12/02 08:26:51;;;;;;;68.85;32.55;;;;;;;0.09;100.00;94664.91;6205333;23;20004;-67
2021/12/02 08:29:16;;;;;;;53.63;30.17;;;;;;;0.07;100.00;94655.56;6206311;22;20046;-66
2021/12/02 08:31:42;;;;;;;57.50;29.83;;;;;;;0.08;100.00;94649.44;6205684;23;20053;-69
2021/12/02 08:34:07;;;;;;;63.78;27.45;;;;;;;0.06;100.00;94653.91;6204778;23;20028;-69
2021/12/02 08:36:46;;;;;;;46.90;23.67;;;;;;;0.06;100.00;94654.75;6203098;23;20001;-68
2021/12/02 08:39:16;;;;;;;50.97;24.05;;;;;;;0.10;100.00;94650.19;6205467;23;20001;-69
2021/12/02 08:41:45;;;;;;;48.33;22.70;;;;;;;0.12;100.00;94649.16;6205615;23;20501;-69
2021/12/02 08:44:11;;;;;;;80.55;37.63;;;;;;;0.11;100.00;94649.25;6204703;23;20467;-69
2021/12/02 08:46:36;;;;;;;119.45;52.75;;;;;;;0.12;100.00;94656.09;6204535;23;20008;-69
2021/12/02 08:49:03;;;;;;;119.72;57.22;;;;;;;0.16;100.00;94648.94;6205350;23;20005;-68
2021/12/02 08:51:28;;;;;;;100.40;55.97;;;;;;;0.18;100.00;94650.50;6204795;23;20064;-69
2021/12/02 08:53:54;;;;;;;99.88;54.15;;;;;;;0.22;100.00;94641.59;6205831;22;20083;-69
2021/12/02 08:56:19;;;;;;;98.07;52.92;;;;;;;0.21;100.00;94639.94;6205566;23;20009;-69
2021/12/02 08:58:45;;;;;;;85.18;48.67;;;;;;;0.21;100.00;94652.88;6206047;23;20005;-69
2021/12/02 09:01:10;;;;;;;84.32;48.15;;;;;;;0.23;100.00;94650.19;6204578;23;20065;-69
2021/12/02 09:03:37;;;;;;;98.82;53.78;;;;;;;0.27;100.00;94655.03;6205260;23;20084;-69
2021/12/02 09:06:03;;;;;;;89.53;56.85;;;;;;;0.30;100.00;94653.19;6205437;23;20001;-69
2021/12/02 09:08:28;;;;;;;69.63;45.33;;;;;;;0.30;100.00;94653.19;6205966;23;20000;-69
2021/12/02 09:10:56;;;;;;;62.33;40.30;;;;;;;0.35;100.00;94653.72;6205200;23;20047;-69
2021/12/02 09:13:22;;;;;;;52.83;37.22;;;;;;;0.39;100.00;94655.16;6204809;22;20015;-69
2021/12/02 09:15:48;;;;;;;47.92;35.28;;;;;;;0.47;100.00;94659.81;6205730;23;20009;-69
2021/12/02 09:18:13;;;;;;;35.47;27.13;;;;;;;0.52;100.00;94653.34;6203952;23;20080;-69
2021/12/02 09:20:39;;;;;;;37.35;29.15;;;;;;;0.59;100.00;94660.72;6204818;23;20000;-69
2021/12/02 09:23:04;;;;;;;47.25;35.30;;;;;;;0.59;100.00;94656.34;6204597;23;20000;-69
2021/12/02 09:25:30;;;;;;;44.10;34.70;;;;;;;0.62;100.00;94660.50;6204433;23;20021;-68
2021/12/02 09:27:55;;;;;;;43.03;34.78;;;;;;;0.65;100.00;94662.88;6205875;23;20348;-69
2021/12/02 09:30:21;;;;;;;41.15;32.47;;;;;;;0.68;100.00;94660.91;6204662;23;19997;-69
2021/12/02 09:32:46;;;;;;;36.40;31.23;;;;;;;0.69;100.00;94656.53;6205001;23;20053;-68
2021/12/02 09:35:13;;;;;;;35.97;29.65;;;;;;;0.70;100.00;94658.19;6205757;23;20088;-69
2021/12/02 09:37:39;;;;;;;33.30;28.52;;;;;;;0.73;100.00;94668.34;6204689;23;20012;-69
2021/12/02 09:40:07;;;;;;;33.17;27.85;;;;;;;0.76;100.00;94668.13;6205364;23;20001;-69
2021/12/02 09:42:33;;;;;;;33.75;27.35;;;;;;;0.78;100.00;94671.47;6205941;23;20393;-69
2021/12/02 09:45:00;;;;;;;27.92;24.38;;;;;;;0.80;100.00;94668.75;6205454;23;20008;-68
2021/12/02 09:47:29;;;;;;;29.80;24.38;;;;;;;0.84;100.00;94672.78;6204820;23;20001;-69
2021/12/02 09:49:55;;;;;;;20.85;17.42;;;;;;;0.90;100.00;94680.16;6204893;23;20009;-69
2021/12/02 09:52:29;;;;;;;28.95;20.58;;;;;;;0.87;100.00;94680.34;6204078;23;20013;-68
2021/12/02 09:55:43;;;;;;;24.65;20.67;;;;;;;0.83;100.00;94677.16;6205475;23;20065;-68
2021/12/02 09:57:47;;;;;;;23.48;17.33;;;;;;;0.80;100.00;94674.78;6216528;22;20067;-68
2021/12/02 10:00:23;;;;;;;21.10;16.60;;;;;;;0.83;100.00;94673.72;6205636;23;20004;-68
2021/12/02 10:02:53;;;;;;;18.92;16.15;;;;;;;0.84;100.00;94681.41;6204409;22;20008;-68
2021/12/02 10:06:05;;;;;;;23.15;16.63;;;;;;;0.88;100.00;94676.00;6204777;23;20084;-68
2021/12/02 10:08:40;;;;;;;20.83;15.90;;;;;;;0.88;100.00;94674.22;6204903;23;20004;-68
2021/12/02 10:11:09;;;;;;;20.23;17.25;;;;;;;0.92;100.00;94667.91;6205001;23;20004;-68
2021/12/02 10:13:50;;;;;;;19.60;15.90;;;;;;;0.96;100.00;94661.56;6205197;23;20005;-68
2021/12/02 10:16:32;;;;;;;21.02;17.88;;;;;;;1.02;100.00;94657.72;6205083;23;20023;-68
2021/12/02 10:19:11;;;;;;;26.42;18.35;;;;;;;1.11;100.00;94649.28;6204943;23;20116;-68
2021/12/02 10:21:43;;;;;;;23.45;19.15;;;;;;;1.17;100.00;94645.41;6205144;23;20005;-68
2021/12/02 10:24:19;;;;;;;33.60;27.75;;;;;;;1.25;100.00;94643.09;6204240;23;20314;-68
2021/12/02 10:26:57;;;;;;;28.88;24.60;;;;;;;1.34;100.00;94636.41;6204382;23;20592;-67
2021/12/02 10:29:31;;;;;;;27.77;23.05;;;;;;;1.46;100.00;94633.88;6204981;23;20015;-68
2021/12/02 10:32:22;;;;;;;32.10;25.58;;;;;;;1.87;100.00;94632.56;6205073;23;20009;-67
2021/12/02 10:35:04;;;;;;;24.48;21.83;;;;;;;2.03;100.00;94624.47;6206087;23;20012;-67
2021/12/02 10:37:34;;;;;;;23.60;19.65;;;;;;;2.12;100.00;94631.56;6204807;23;20348;-67
2021/12/02 10:40:14;;;;;;;21.27;18.80;;;;;;;2.18;100.00;94629.41;6205280;23;20021;-67
2021/12/02 10:42:44;;;;;;;20.10;15.95;;;;;;;2.11;100.00;94626.50;6205162;23;20008;-67
2021/12/02 10:45:21;;;;;;;13.75;12.23;;;;;;;1.94;100.00;94617.34;6206578;23;20021;-72
2021/12/02 10:47:49;;;;;;;16.42;12.43;;;;;;;1.91;100.00;94617.59;6206342;23;20009;-65
2021/12/02 10:50:15;;;;;;;16.58;13.85;;;;;;;1.87;100.00;94622.19;6205862;23;20004;-64
2021/12/02 10:52:41;;;;;;;19.98;16.30;;;;;;;1.79;100.00;94619.34;6204714;23;20828;-64
2021/12/02 10:55:13;;;;;;;20.63;18.52;;;;;;;1.80;100.00;94613.19;6207049;23;20005;-66
2021/12/02 10:57:45;;;;;;;20.70;18.42;;;;;;;1.69;100.00;94603.63;6205676;23;20008;-65
2021/12/02 11:00:14;;;;;;;25.95;19.17;;;;;;;1.65;100.00;94608.22;6205688;23;20076;-65
2021/12/02 11:02:46;;;;;;;29.90;22.05;;;;;;;1.69;100.00;94601.88;6206432;23;20016;-65
2021/12/02 11:05:32;;;;;;;27.55;20.45;;;;;;;1.73;100.00;94594.66;6204632;23;20076;-65
2021/12/02 11:08:09;;;;;;;47.25;32.13;;;;;;;1.82;100.00;94598.34;6205862;23;20016;-67
2021/12/02 11:10:38;;;;;;;32.33;27.55;;;;;;;1.91;100.00;94596.81;6205567;23;20004;-65
2021/12/02 11:13:05;;;;;;;30.50;22.58;;;;;;;1.93;100.00;94592.34;6206292;23;20355;-65
2021/12/02 11:15:33;;;;;;;32.05;23.17;;;;;;;1.91;100.00;94587.28;6206196;23;20405;-65
2021/12/02 11:18:07;;;;;;;25.73;20.50;;;;;;;1.86;100.00;94591.97;6179450;23;20009;-65
2021/12/02 11:20:59;;;;;;;27.30;21.50;;;;;;;1.85;100.00;94587.72;6205720;23;20036;-64
2021/12/02 11:23:29;;;;;;;22.60;20.15;;;;;;;1.85;100.00;94592.91;6178711;23;20001;-65
2021/12/02 11:26:10;;;;;;;20.10;18.05;;;;;;;1.81;100.00;94591.50;6206293;23;20009;-65
2021/12/02 11:28:38;;;;;;;24.10;19.13;;;;;;;1.78;100.00;94586.53;6178666;23;20363;-64